sensor_id;sensor_type;location;lat;lon;timestamp;P1;durP1;ratioP1;P2;durP2;ratioP2
13753;SDS011;6948;51.216;6.778;2022-09-06T00:00:27;4.47;;;2.83;;
13753;SDS011;6948;51.216;6.778;2022-09-06T00:02:53;4.10;;;2.90;;
13753;SDS011;6948;51.216;6.778;2022-09-06T00:05:19;5.18;;;2.88;;
13753;SDS011;6948;51.216;6.778;2022-09-06T00:07:45;4.72;;;3.22;;
13753;SDS011;6948;51.216;6.778;2022-09-06T00:10:11;5.70;;;3.20;;
13753;SDS011;6948;51.216;6.778;2022-09-06T00:12:37;3.63;;;3.10;;
13753;SDS011;6948;51.216;6.778;2022-09-06T00:15:04;4.35;;;3.10;;
13753;SDS011;6948;51.216;6.778;2022-09-06T00:17:30;4.37;;;2.77;;
13753;SDS011;6948;51.216;6.778;2022-09-06T00:19:56;8.70;;;3.00;;
13753;SDS011;6948;51.216;6.778;2022-09-06T00:22:23;4.73;;;2.80;;
13753;SDS011;6948;51.216;6.778;2022-09-06T00:24:49;8.07;;;2.80;;
13753;SDS011;6948;51.216;6.778;2022-09-06T00:27:15;7.67;;;2.83;;
13753;SDS011;6948;51.216;6.778;2022-09-06T00:29:43;6.87;;;2.80;;
13753;SDS011;6948;51.216;6.778;2022-09-06T00:32:09;5.87;;;2.90;;
13753;SDS011;6948;51.216;6.778;2022-09-06T00:34:35;8.70;;;3.10;;
13753;SDS011;6948;51.216;6.778;2022-09-06T00:37:02;8.27;;;3.03;;
13753;SDS011;6948;51.216;6.778;2022-09-06T00:39:28;8.13;;;2.80;;
13753;SDS011;6948;51.216;6.778;2022-09-06T00:41:54;9.50;;;3.10;;
13753;SDS011;6948;51.216;6.778;2022-09-06T00:44:20;9.80;;;3.03;;
13753;SDS011;6948;51.216;6.778;2022-09-06T00:46:46;4.50;;;2.70;;
13753;SDS011;6948;51.216;6.778;2022-09-06T00:49:17;12.50;;;2.67;;
13753;SDS011;6948;51.216;6.778;2022-09-06T00:51:48;6.70;;;2.70;;
13753;SDS011;6948;51.216;6.778;2022-09-06T00:54:15;5.43;;;3.23;;
13753;SDS011;6948;51.216;6.778;2022-09-06T00:56:41;5.67;;;2.70;;
13753;SDS011;6948;51.216;6.778;2022-09-06T00:59:08;7.40;;;2.93;;
13753;SDS011;6948;51.216;6.778;2022-09-06T01:01:34;5.90;;;2.43;;
13753;SDS011;6948;51.216;6.778;2022-09-06T01:04:00;4.93;;;2.70;;
13753;SDS011;6948;51.216;6.778;2022-09-06T01:17:45;11.23;;;2.83;;
13753;SDS011;6948;51.216;6.778;2022-09-06T01:28:36;8.60;;;3.00;;
13753;SDS011;6948;51.216;6.778;2022-09-06T01:36:32;11.13;;;3.40;;
13753;SDS011;6948;51.216;6.778;2022-09-06T01:39:01;5.43;;;3.40;;
13753;SDS011;6948;51.216;6.778;2022-09-06T01:41:27;7.43;;;3.00;;
13753;SDS011;6948;51.216;6.778;2022-09-06T01:43:54;8.33;;;3.10;;
13753;SDS011;6948;51.216;6.778;2022-09-06T01:49:03;7.63;;;3.30;;
13753;SDS011;6948;51.216;6.778;2022-09-06T02:02:25;10.50;;;3.63;;
13753;SDS011;6948;51.216;6.778;2022-09-06T02:04:55;8.50;;;3.77;;
13753;SDS011;6948;51.216;6.778;2022-09-06T02:07:33;6.30;;;3.50;;
13753;SDS011;6948;51.216;6.778;2022-09-06T02:10:11;8.13;;;3.50;;
13753;SDS011;6948;51.216;6.778;2022-09-06T02:12:39;7.87;;;3.37;;
13753;SDS011;6948;51.216;6.778;2022-09-06T02:15:08;5.00;;;3.37;;
13753;SDS011;6948;51.216;6.778;2022-09-06T02:17:38;9.93;;;3.43;;
13753;SDS011;6948;51.216;6.778;2022-09-06T02:20:08;5.37;;;3.20;;
13753;SDS011;6948;51.216;6.778;2022-09-06T02:22:36;5.70;;;3.20;;
13753;SDS011;6948;51.216;6.778;2022-09-06T02:25:05;9.10;;;3.67;;
13753;SDS011;6948;51.216;6.778;2022-09-06T02:27:32;7.63;;;3.53;;
13753;SDS011;6948;51.216;6.778;2022-09-06T02:29:58;7.60;;;3.33;;
13753;SDS011;6948;51.216;6.778;2022-09-06T02:32:27;7.93;;;3.53;;
13753;SDS011;6948;51.216;6.778;2022-09-06T02:34:54;7.73;;;3.73;;
13753;SDS011;6948;51.216;6.778;2022-09-06T02:37:23;4.80;;;3.30;;
13753;SDS011;6948;51.216;6.778;2022-09-06T02:39:50;6.50;;;3.50;;
13753;SDS011;6948;51.216;6.778;2022-09-06T02:42:18;4.47;;;3.10;;
13753;SDS011;6948;51.216;6.778;2022-09-06T02:44:44;9.07;;;3.23;;
13753;SDS011;6948;51.216;6.778;2022-09-06T02:47:10;5.60;;;3.13;;
13753;SDS011;6948;51.216;6.778;2022-09-06T02:49:36;7.33;;;3.03;;
13753;SDS011;6948;51.216;6.778;2022-09-06T02:52:02;6.67;;;3.07;;
13753;SDS011;6948;51.216;6.778;2022-09-06T02:54:28;5.97;;;3.17;;
13753;SDS011;6948;51.216;6.778;2022-09-06T02:56:55;7.83;;;3.73;;
13753;SDS011;6948;51.216;6.778;2022-09-06T02:59:21;10.60;;;3.63;;
13753;SDS011;6948;51.216;6.778;2022-09-06T03:01:47;7.73;;;4.00;;
13753;SDS011;6948;51.216;6.778;2022-09-06T03:04:13;6.13;;;3.80;;
13753;SDS011;6948;51.216;6.778;2022-09-06T03:06:39;5.30;;;3.63;;
13753;SDS011;6948;51.216;6.778;2022-09-06T03:09:05;10.43;;;4.50;;
13753;SDS011;6948;51.216;6.778;2022-09-06T03:11:34;9.50;;;4.60;;
13753;SDS011;6948;51.216;6.778;2022-09-06T03:14:00;8.77;;;3.63;;
13753;SDS011;6948;51.216;6.778;2022-09-06T03:16:26;4.43;;;3.70;;
13753;SDS011;6948;51.216;6.778;2022-09-06T03:18:52;6.03;;;3.70;;
13753;SDS011;6948;51.216;6.778;2022-09-06T03:21:18;7.50;;;4.00;;
13753;SDS011;6948;51.216;6.778;2022-09-06T03:23:44;7.57;;;4.60;;
13753;SDS011;6948;51.216;6.778;2022-09-06T03:26:10;7.43;;;4.60;;
13753;SDS011;6948;51.216;6.778;2022-09-06T03:28:36;11.37;;;4.67;;
13753;SDS011;6948;51.216;6.778;2022-09-06T03:31:03;8.43;;;4.63;;
13753;SDS011;6948;51.216;6.778;2022-09-06T03:33:29;7.33;;;4.47;;
13753;SDS011;6948;51.216;6.778;2022-09-06T03:35:56;8.23;;;4.43;;
13753;SDS011;6948;51.216;6.778;2022-09-06T03:38:23;9.97;;;4.50;;
13753;SDS011;6948;51.216;6.778;2022-09-06T03:40:49;8.63;;;4.90;;
13753;SDS011;6948;51.216;6.778;2022-09-06T03:43:16;6.27;;;4.30;;
13753;SDS011;6948;51.216;6.778;2022-09-06T03:45:45;7.60;;;4.33;;
13753;SDS011;6948;51.216;6.778;2022-09-06T03:48:11;10.70;;;4.33;;
13753;SDS011;6948;51.216;6.778;2022-09-06T03:50:37;7.30;;;4.67;;
13753;SDS011;6948;51.216;6.778;2022-09-06T03:53:03;7.90;;;4.77;;
13753;SDS011;6948;51.216;6.778;2022-09-06T03:55:29;8.67;;;4.77;;
13753;SDS011;6948;51.216;6.778;2022-09-06T03:57:55;7.73;;;4.60;;
13753;SDS011;6948;51.216;6.778;2022-09-06T04:00:21;7.13;;;4.63;;
13753;SDS011;6948;51.216;6.778;2022-09-06T04:02:48;10.70;;;4.53;;
13753;SDS011;6948;51.216;6.778;2022-09-06T04:05:14;7.87;;;4.60;;
13753;SDS011;6948;51.216;6.778;2022-09-06T04:07:41;9.63;;;5.30;;
13753;SDS011;6948;51.216;6.778;2022-09-06T04:10:07;9.00;;;5.10;;
13753;SDS011;6948;51.216;6.778;2022-09-06T04:12:33;8.97;;;5.00;;
13753;SDS011;6948;51.216;6.778;2022-09-06T04:14:59;11.20;;;5.30;;
13753;SDS011;6948;51.216;6.778;2022-09-06T04:17:25;12.20;;;5.63;;
13753;SDS011;6948;51.216;6.778;2022-09-06T04:19:51;8.40;;;5.90;;
13753;SDS011;6948;51.216;6.778;2022-09-06T04:22:17;9.63;;;5.33;;
13753;SDS011;6948;51.216;6.778;2022-09-06T04:24:43;12.73;;;5.97;;
13753;SDS011;6948;51.216;6.778;2022-09-06T04:27:09;11.63;;;6.07;;
13753;SDS011;6948;51.216;6.778;2022-09-06T04:29:35;10.23;;;5.80;;
13753;SDS011;6948;51.216;6.778;2022-09-06T04:32:01;9.37;;;5.70;;
13753;SDS011;6948;51.216;6.778;2022-09-06T04:34:27;10.13;;;5.67;;
13753;SDS011;6948;51.216;6.778;2022-09-06T04:36:54;8.33;;;5.93;;
13753;SDS011;6948;51.216;6.778;2022-09-06T04:39:20;9.30;;;6.03;;
13753;SDS011;6948;51.216;6.778;2022-09-06T04:41:46;7.73;;;5.70;;
13753;SDS011;6948;51.216;6.778;2022-09-06T04:44:12;8.07;;;6.13;;
13753;SDS011;6948;51.216;6.778;2022-09-06T04:46:39;8.67;;;6.73;;
13753;SDS011;6948;51.216;6.778;2022-09-06T04:49:05;10.37;;;6.73;;
13753;SDS011;6948;51.216;6.778;2022-09-06T04:51:31;9.13;;;7.13;;
13753;SDS011;6948;51.216;6.778;2022-09-06T04:53:57;14.70;;;7.37;;
13753;SDS011;6948;51.216;6.778;2022-09-06T04:56:24;8.77;;;7.47;;
13753;SDS011;6948;51.216;6.778;2022-09-06T04:58:51;10.00;;;7.50;;
13753;SDS011;6948;51.216;6.778;2022-09-06T05:01:17;9.13;;;7.33;;
13753;SDS011;6948;51.216;6.778;2022-09-06T05:03:44;10.47;;;7.00;;
13753;SDS011;6948;51.216;6.778;2022-09-06T05:08:46;10.47;;;7.90;;
13753;SDS011;6948;51.216;6.778;2022-09-06T05:11:13;12.53;;;8.17;;
13753;SDS011;6948;51.216;6.778;2022-09-06T05:13:39;15.53;;;8.10;;
13753;SDS011;6948;51.216;6.778;2022-09-06T05:16:06;13.87;;;8.30;;
13753;SDS011;6948;51.216;6.778;2022-09-06T05:18:33;11.20;;;7.87;;
13753;SDS011;6948;51.216;6.778;2022-09-06T05:20:59;12.80;;;7.70;;
13753;SDS011;6948;51.216;6.778;2022-09-06T05:23:25;11.93;;;7.50;;
13753;SDS011;6948;51.216;6.778;2022-09-06T05:25:52;14.43;;;7.57;;
13753;SDS011;6948;51.216;6.778;2022-09-06T05:28:18;9.87;;;7.40;;
13753;SDS011;6948;51.216;6.778;2022-09-06T05:30:44;10.30;;;7.43;;
13753;SDS011;6948;51.216;6.778;2022-09-06T05:33:11;9.50;;;6.80;;
13753;SDS011;6948;51.216;6.778;2022-09-06T05:35:37;10.53;;;6.87;;
13753;SDS011;6948;51.216;6.778;2022-09-06T05:38:04;10.27;;;7.23;;
13753;SDS011;6948;51.216;6.778;2022-09-06T05:40:29;9.50;;;6.50;;
13753;SDS011;6948;51.216;6.778;2022-09-06T05:42:56;11.00;;;7.00;;
13753;SDS011;6948;51.216;6.778;2022-09-06T05:45:22;8.67;;;6.77;;
13753;SDS011;6948;51.216;6.778;2022-09-06T05:47:48;12.13;;;6.90;;
13753;SDS011;6948;51.216;6.778;2022-09-06T05:50:14;9.97;;;7.80;;
13753;SDS011;6948;51.216;6.778;2022-09-06T05:52:40;13.70;;;7.43;;
13753;SDS011;6948;51.216;6.778;2022-09-06T05:55:06;13.37;;;6.90;;
13753;SDS011;6948;51.216;6.778;2022-09-06T05:57:32;10.63;;;7.43;;
13753;SDS011;6948;51.216;6.778;2022-09-06T05:59:58;12.20;;;7.23;;
13753;SDS011;6948;51.216;6.778;2022-09-06T06:02:24;12.40;;;7.93;;
13753;SDS011;6948;51.216;6.778;2022-09-06T06:04:50;10.57;;;7.10;;
13753;SDS011;6948;51.216;6.778;2022-09-06T06:07:18;11.33;;;7.20;;
13753;SDS011;6948;51.216;6.778;2022-09-06T06:09:44;9.17;;;7.07;;
13753;SDS011;6948;51.216;6.778;2022-09-06T06:12:10;10.70;;;7.87;;
13753;SDS011;6948;51.216;6.778;2022-09-06T06:14:36;12.17;;;7.37;;
13753;SDS011;6948;51.216;6.778;2022-09-06T06:17:02;12.47;;;8.70;;
13753;SDS011;6948;51.216;6.778;2022-09-06T06:19:28;17.17;;;14.77;;
13753;SDS011;6948;51.216;6.778;2022-09-06T06:21:55;12.37;;;9.73;;
13753;SDS011;6948;51.216;6.778;2022-09-06T06:24:22;12.13;;;7.97;;
13753;SDS011;6948;51.216;6.778;2022-09-06T06:26:48;9.10;;;6.27;;
13753;SDS011;6948;51.216;6.778;2022-09-06T06:29:14;10.47;;;7.30;;
13753;SDS011;6948;51.216;6.778;2022-09-06T06:31:40;8.17;;;6.50;;
13753;SDS011;6948;51.216;6.778;2022-09-06T06:34:06;8.50;;;6.50;;
13753;SDS011;6948;51.216;6.778;2022-09-06T06:36:33;12.77;;;7.23;;
13753;SDS011;6948;51.216;6.778;2022-09-06T06:39:00;9.67;;;6.67;;
13753;SDS011;6948;51.216;6.778;2022-09-06T06:41:27;14.77;;;10.67;;
13753;SDS011;6948;51.216;6.778;2022-09-06T06:43:54;9.87;;;6.27;;
13753;SDS011;6948;51.216;6.778;2022-09-06T06:46:22;9.27;;;7.07;;
13753;SDS011;6948;51.216;6.778;2022-09-06T06:48:48;9.20;;;6.37;;
13753;SDS011;6948;51.216;6.778;2022-09-06T06:51:15;8.07;;;7.10;;
13753;SDS011;6948;51.216;6.778;2022-09-06T06:53:42;10.60;;;6.67;;
13753;SDS011;6948;51.216;6.778;2022-09-06T06:56:12;10.07;;;6.63;;
13753;SDS011;6948;51.216;6.778;2022-09-06T06:58:39;9.63;;;5.97;;
13753;SDS011;6948;51.216;6.778;2022-09-06T07:01:05;9.87;;;6.07;;
13753;SDS011;6948;51.216;6.778;2022-09-06T07:03:31;11.80;;;6.40;;
13753;SDS011;6948;51.216;6.778;2022-09-06T07:05:57;9.30;;;6.40;;
13753;SDS011;6948;51.216;6.778;2022-09-06T07:08:23;8.57;;;6.80;;
13753;SDS011;6948;51.216;6.778;2022-09-06T07:10:50;9.27;;;6.43;;
13753;SDS011;6948;51.216;6.778;2022-09-06T07:13:16;8.57;;;5.77;;
13753;SDS011;6948;51.216;6.778;2022-09-06T07:15:42;14.33;;;10.23;;
13753;SDS011;6948;51.216;6.778;2022-09-06T07:18:08;14.80;;;7.00;;
13753;SDS011;6948;51.216;6.778;2022-09-06T07:20:34;8.23;;;6.17;;
13753;SDS011;6948;51.216;6.778;2022-09-06T07:23:01;10.20;;;6.50;;
13753;SDS011;6948;51.216;6.778;2022-09-06T07:25:29;10.30;;;5.63;;
13753;SDS011;6948;51.216;6.778;2022-09-06T07:27:56;9.07;;;5.60;;
13753;SDS011;6948;51.216;6.778;2022-09-06T07:30:22;7.30;;;5.30;;
13753;SDS011;6948;51.216;6.778;2022-09-06T07:32:48;6.80;;;4.63;;
13753;SDS011;6948;51.216;6.778;2022-09-06T07:35:14;7.27;;;5.27;;
13753;SDS011;6948;51.216;6.778;2022-09-06T07:37:41;8.07;;;4.70;;
13753;SDS011;6948;51.216;6.778;2022-09-06T07:40:07;7.00;;;5.20;;
13753;SDS011;6948;51.216;6.778;2022-09-06T07:42:33;8.63;;;5.00;;
13753;SDS011;6948;51.216;6.778;2022-09-06T07:44:59;6.30;;;4.00;;
13753;SDS011;6948;51.216;6.778;2022-09-06T07:47:25;6.70;;;4.00;;
13753;SDS011;6948;51.216;6.778;2022-09-06T07:49:51;9.50;;;4.00;;
13753;SDS011;6948;51.216;6.778;2022-09-06T07:52:17;5.10;;;3.70;;
13753;SDS011;6948;51.216;6.778;2022-09-06T07:54:43;5.53;;;3.17;;
13753;SDS011;6948;51.216;6.778;2022-09-06T07:57:09;6.63;;;3.37;;
13753;SDS011;6948;51.216;6.778;2022-09-06T07:59:36;4.23;;;3.33;;
13753;SDS011;6948;51.216;6.778;2022-09-06T08:02:02;7.47;;;3.37;;
13753;SDS011;6948;51.216;6.778;2022-09-06T08:04:28;7.57;;;3.73;;
13753;SDS011;6948;51.216;6.778;2022-09-06T08:06:54;5.17;;;3.60;;
13753;SDS011;6948;51.216;6.778;2022-09-06T08:09:21;10.73;;;6.37;;
13753;SDS011;6948;51.216;6.778;2022-09-06T08:11:47;10.33;;;4.60;;
13753;SDS011;6948;51.216;6.778;2022-09-06T08:14:15;7.90;;;3.90;;
13753;SDS011;6948;51.216;6.778;2022-09-06T08:16:40;4.53;;;3.60;;
13753;SDS011;6948;51.216;6.778;2022-09-06T08:19:06;7.87;;;3.70;;
13753;SDS011;6948;51.216;6.778;2022-09-06T08:21:33;6.20;;;3.47;;
13753;SDS011;6948;51.216;6.778;2022-09-06T08:24:01;4.60;;;3.30;;
13753;SDS011;6948;51.216;6.778;2022-09-06T08:26:28;5.23;;;3.23;;
13753;SDS011;6948;51.216;6.778;2022-09-06T08:28:55;5.90;;;3.15;;
13753;SDS011;6948;51.216;6.778;2022-09-06T08:31:22;4.97;;;2.90;;
13753;SDS011;6948;51.216;6.778;2022-09-06T08:33:48;7.20;;;3.10;;
13753;SDS011;6948;51.216;6.778;2022-09-06T08:36:14;7.97;;;3.00;;
13753;SDS011;6948;51.216;6.778;2022-09-06T08:38:40;3.53;;;2.50;;
13753;SDS011;6948;51.216;6.778;2022-09-06T08:41:08;4.72;;;2.75;;
13753;SDS011;6948;51.216;6.778;2022-09-06T08:43:35;6.70;;;2.70;;
13753;SDS011;6948;51.216;6.778;2022-09-06T08:46:01;3.78;;;2.53;;
13753;SDS011;6948;51.216;6.778;2022-09-06T08:48:29;3.53;;;2.50;;
13753;SDS011;6948;51.216;6.778;2022-09-06T08:53:44;6.75;;;3.65;;
13753;SDS011;6948;51.216;6.778;2022-09-06T08:56:15;5.17;;;2.97;;
13753;SDS011;6948;51.216;6.778;2022-09-06T09:01:24;3.60;;;2.40;;
13753;SDS011;6948;51.216;6.778;2022-09-06T09:03:52;5.53;;;2.80;;
13753;SDS011;6948;51.216;6.778;2022-09-06T09:06:21;6.05;;;2.20;;
13753;SDS011;6948;51.216;6.778;2022-09-06T09:11:32;5.78;;;1.98;;
13753;SDS011;6948;51.216;6.778;2022-09-06T09:14:04;7.18;;;2.20;;
13753;SDS011;6948;51.216;6.778;2022-09-06T09:16:33;5.13;;;1.90;;
13753;SDS011;6948;51.216;6.778;2022-09-06T09:19:00;4.63;;;2.47;;
13753;SDS011;6948;51.216;6.778;2022-09-06T09:21:27;4.30;;;1.95;;
13753;SDS011;6948;51.216;6.778;2022-09-06T09:23:56;5.00;;;1.88;;
13753;SDS011;6948;51.216;6.778;2022-09-06T09:26:23;4.03;;;1.80;;
13753;SDS011;6948;51.216;6.778;2022-09-06T09:29:07;4.78;;;2.00;;
13753;SDS011;6948;51.216;6.778;2022-09-06T09:31:38;4.50;;;2.20;;
13753;SDS011;6948;51.216;6.778;2022-09-06T09:34:05;4.68;;;2.00;;
13753;SDS011;6948;51.216;6.778;2022-09-06T09:36:34;3.63;;;2.00;;
13753;SDS011;6948;51.216;6.778;2022-09-06T09:39:01;3.42;;;1.77;;
13753;SDS011;6948;51.216;6.778;2022-09-06T09:41:33;5.68;;;2.10;;
13753;SDS011;6948;51.216;6.778;2022-09-06T09:44:03;3.28;;;1.80;;
13753;SDS011;6948;51.216;6.778;2022-09-06T09:46:31;3.92;;;1.95;;
13753;SDS011;6948;51.216;6.778;2022-09-06T09:51:42;4.75;;;2.00;;
13753;SDS011;6948;51.216;6.778;2022-09-06T09:54:10;4.68;;;1.73;;
13753;SDS011;6948;51.216;6.778;2022-09-06T09:56:38;6.93;;;2.35;;
13753;SDS011;6948;51.216;6.778;2022-09-06T09:59:06;5.28;;;2.15;;
13753;SDS011;6948;51.216;6.778;2022-09-06T10:01:33;3.67;;;2.10;;
13753;SDS011;6948;51.216;6.778;2022-09-06T10:04:03;3.45;;;1.85;;
13753;SDS011;6948;51.216;6.778;2022-09-06T10:06:30;3.60;;;2.00;;
13753;SDS011;6948;51.216;6.778;2022-09-06T10:08:56;4.13;;;1.98;;
13753;SDS011;6948;51.216;6.778;2022-09-06T10:14:10;2.17;;;1.80;;
13753;SDS011;6948;51.216;6.778;2022-09-06T10:16:40;6.65;;;2.45;;
13753;SDS011;6948;51.216;6.778;2022-09-06T10:19:20;4.97;;;2.10;;
13753;SDS011;6948;51.216;6.778;2022-09-06T10:21:46;4.22;;;1.98;;
13753;SDS011;6948;51.216;6.778;2022-09-06T10:24:16;3.30;;;1.70;;
13753;SDS011;6948;51.216;6.778;2022-09-06T10:27:01;4.85;;;1.63;;
13753;SDS011;6948;51.216;6.778;2022-09-06T10:34:56;3.35;;;2.00;;
13753;SDS011;6948;51.216;6.778;2022-09-06T10:37:44;5.10;;;1.80;;
13753;SDS011;6948;51.216;6.778;2022-09-06T10:40:17;3.70;;;1.70;;
13753;SDS011;6948;51.216;6.778;2022-09-06T10:42:46;2.38;;;1.80;;
13753;SDS011;6948;51.216;6.778;2022-09-06T10:45:15;4.53;;;2.05;;
13753;SDS011;6948;51.216;6.778;2022-09-06T10:47:48;3.05;;;1.90;;
13753;SDS011;6948;51.216;6.778;2022-09-06T10:50:17;4.35;;;1.65;;
13753;SDS011;6948;51.216;6.778;2022-09-06T10:52:43;7.20;;;2.00;;
13753;SDS011;6948;51.216;6.778;2022-09-06T10:55:13;4.30;;;1.75;;
13753;SDS011;6948;51.216;6.778;2022-09-06T10:57:49;4.35;;;2.10;;
13753;SDS011;6948;51.216;6.778;2022-09-06T11:00:18;6.78;;;2.40;;
13753;SDS011;6948;51.216;6.778;2022-09-06T11:05:25;4.18;;;1.92;;
13753;SDS011;6948;51.216;6.778;2022-09-06T11:07:55;4.53;;;1.67;;
13753;SDS011;6948;51.216;6.778;2022-09-06T11:10:33;6.25;;;2.00;;
13753;SDS011;6948;51.216;6.778;2022-09-06T11:13:06;5.32;;;1.73;;
13753;SDS011;6948;51.216;6.778;2022-09-06T11:15:36;5.18;;;2.17;;
13753;SDS011;6948;51.216;6.778;2022-09-06T11:18:08;3.83;;;2.00;;
13753;SDS011;6948;51.216;6.778;2022-09-06T11:28:46;3.05;;;1.80;;
13753;SDS011;6948;51.216;6.778;2022-09-06T11:31:18;7.40;;;2.42;;
13753;SDS011;6948;51.216;6.778;2022-09-06T11:33:47;5.15;;;2.17;;
13753;SDS011;6948;51.216;6.778;2022-09-06T11:39:00;4.15;;;1.88;;
13753;SDS011;6948;51.216;6.778;2022-09-06T11:41:29;3.28;;;1.70;;
13753;SDS011;6948;51.216;6.778;2022-09-06T11:43:57;3.33;;;1.80;;
13753;SDS011;6948;51.216;6.778;2022-09-06T11:49:32;3.58;;;2.13;;
13753;SDS011;6948;51.216;6.778;2022-09-06T11:51:58;4.15;;;2.10;;
13753;SDS011;6948;51.216;6.778;2022-09-06T11:54:25;5.22;;;2.30;;
13753;SDS011;6948;51.216;6.778;2022-09-06T11:56:56;6.22;;;2.15;;
13753;SDS011;6948;51.216;6.778;2022-09-06T11:59:26;7.88;;;2.10;;
13753;SDS011;6948;51.216;6.778;2022-09-06T12:07:15;4.10;;;2.10;;
13753;SDS011;6948;51.216;6.778;2022-09-06T12:09:42;3.83;;;2.03;;
13753;SDS011;6948;51.216;6.778;2022-09-06T12:12:09;5.57;;;2.20;;
13753;SDS011;6948;51.216;6.778;2022-09-06T12:14:36;5.88;;;2.55;;
13753;SDS011;6948;51.216;6.778;2022-09-06T12:27:52;8.13;;;2.10;;
13753;SDS011;6948;51.216;6.778;2022-09-06T12:33:14;6.47;;;2.00;;
13753;SDS011;6948;51.216;6.778;2022-09-06T12:35:42;6.00;;;2.00;;
13753;SDS011;6948;51.216;6.778;2022-09-06T12:38:11;5.15;;;2.40;;
13753;SDS011;6948;51.216;6.778;2022-09-06T12:40:40;5.95;;;2.33;;
13753;SDS011;6948;51.216;6.778;2022-09-06T12:43:09;7.28;;;2.10;;
13753;SDS011;6948;51.216;6.778;2022-09-06T12:45:41;5.32;;;2.00;;
13753;SDS011;6948;51.216;6.778;2022-09-06T12:48:12;5.05;;;1.88;;
13753;SDS011;6948;51.216;6.778;2022-09-06T12:50:40;7.03;;;2.50;;
13753;SDS011;6948;51.216;6.778;2022-09-06T12:53:22;7.65;;;2.00;;
13753;SDS011;6948;51.216;6.778;2022-09-06T12:56:00;6.35;;;1.67;;
13753;SDS011;6948;51.216;6.778;2022-09-06T12:58:27;4.43;;;1.83;;
13753;SDS011;6948;51.216;6.778;2022-09-06T13:00:53;3.42;;;1.80;;
13753;SDS011;6948;51.216;6.778;2022-09-06T13:03:28;6.07;;;1.73;;
13753;SDS011;6948;51.216;6.778;2022-09-06T13:05:56;3.03;;;1.52;;
13753;SDS011;6948;51.216;6.778;2022-09-06T13:08:25;4.63;;;1.70;;
13753;SDS011;6948;51.216;6.778;2022-09-06T13:10:54;7.60;;;1.50;;
13753;SDS011;6948;51.216;6.778;2022-09-06T13:13:21;5.35;;;1.60;;
13753;SDS011;6948;51.216;6.778;2022-09-06T13:15:48;5.78;;;1.95;;
13753;SDS011;6948;51.216;6.778;2022-09-06T13:20:58;3.65;;;1.80;;
13753;SDS011;6948;51.216;6.778;2022-09-06T13:23:24;3.15;;;1.60;;
13753;SDS011;6948;51.216;6.778;2022-09-06T13:25:51;4.80;;;1.48;;
13753;SDS011;6948;51.216;6.778;2022-09-06T13:28:26;3.30;;;1.58;;
13753;SDS011;6948;51.216;6.778;2022-09-06T13:31:01;3.53;;;1.98;;
13753;SDS011;6948;51.216;6.778;2022-09-06T13:33:27;6.05;;;1.90;;
13753;SDS011;6948;51.216;6.778;2022-09-06T13:38:46;5.80;;;1.80;;
13753;SDS011;6948;51.216;6.778;2022-09-06T13:43:59;3.53;;;1.70;;
13753;SDS011;6948;51.216;6.778;2022-09-06T13:46:28;3.58;;;1.42;;
13753;SDS011;6948;51.216;6.778;2022-09-06T13:48:55;6.45;;;1.75;;
13753;SDS011;6948;51.216;6.778;2022-09-06T13:51:21;3.75;;;1.50;;
13753;SDS011;6948;51.216;6.778;2022-09-06T13:53:48;2.10;;;1.33;;
13753;SDS011;6948;51.216;6.778;2022-09-06T13:56:14;4.05;;;1.65;;
13753;SDS011;6948;51.216;6.778;2022-09-06T13:58:41;4.03;;;1.25;;
13753;SDS011;6948;51.216;6.778;2022-09-06T14:01:08;3.90;;;1.50;;
13753;SDS011;6948;51.216;6.778;2022-09-06T14:03:35;4.45;;;1.35;;
13753;SDS011;6948;51.216;6.778;2022-09-06T14:06:01;4.07;;;1.40;;
13753;SDS011;6948;51.216;6.778;2022-09-06T14:08:27;3.35;;;1.20;;
13753;SDS011;6948;51.216;6.778;2022-09-06T14:10:54;2.42;;;1.30;;
13753;SDS011;6948;51.216;6.778;2022-09-06T14:13:20;4.05;;;1.50;;
13753;SDS011;6948;51.216;6.778;2022-09-06T14:15:47;2.80;;;1.63;;
13753;SDS011;6948;51.216;6.778;2022-09-06T14:18:14;4.30;;;1.80;;
13753;SDS011;6948;51.216;6.778;2022-09-06T14:20:40;3.63;;;1.40;;
13753;SDS011;6948;51.216;6.778;2022-09-06T14:23:07;3.78;;;1.42;;
13753;SDS011;6948;51.216;6.778;2022-09-06T14:25:34;2.47;;;1.50;;
13753;SDS011;6948;51.216;6.778;2022-09-06T14:28:01;3.20;;;1.42;;
13753;SDS011;6948;51.216;6.778;2022-09-06T14:30:27;3.63;;;1.58;;
13753;SDS011;6948;51.216;6.778;2022-09-06T14:32:53;6.57;;;1.58;;
13753;SDS011;6948;51.216;6.778;2022-09-06T14:35:19;2.10;;;1.30;;
13753;SDS011;6948;51.216;6.778;2022-09-06T14:37:45;2.50;;;1.50;;
13753;SDS011;6948;51.216;6.778;2022-09-06T14:40:11;3.15;;;1.38;;
13753;SDS011;6948;51.216;6.778;2022-09-06T14:42:37;4.55;;;1.52;;
13753;SDS011;6948;51.216;6.778;2022-09-06T14:45:03;2.28;;;1.20;;
13753;SDS011;6948;51.216;6.778;2022-09-06T14:47:29;3.10;;;1.27;;
13753;SDS011;6948;51.216;6.778;2022-09-06T14:49:57;3.17;;;1.40;;
13753;SDS011;6948;51.216;6.778;2022-09-06T14:52:23;2.25;;;1.40;;
13753;SDS011;6948;51.216;6.778;2022-09-06T14:54:49;2.25;;;1.13;;
13753;SDS011;6948;51.216;6.778;2022-09-06T14:57:15;4.60;;;1.40;;
13753;SDS011;6948;51.216;6.778;2022-09-06T14:59:41;3.03;;;1.40;;
13753;SDS011;6948;51.216;6.778;2022-09-06T15:02:07;3.00;;;1.23;;
13753;SDS011;6948;51.216;6.778;2022-09-06T15:04:33;1.92;;;1.10;;
13753;SDS011;6948;51.216;6.778;2022-09-06T15:06:59;1.88;;;1.13;;
13753;SDS011;6948;51.216;6.778;2022-09-06T15:09:25;3.40;;;1.23;;
13753;SDS011;6948;51.216;6.778;2022-09-06T15:11:51;4.10;;;1.48;;
13753;SDS011;6948;51.216;6.778;2022-09-06T15:14:18;3.67;;;1.40;;
13753;SDS011;6948;51.216;6.778;2022-09-06T15:16:46;2.63;;;1.40;;
13753;SDS011;6948;51.216;6.778;2022-09-06T15:19:12;2.78;;;1.40;;
13753;SDS011;6948;51.216;6.778;2022-09-06T15:21:38;3.00;;;1.50;;
13753;SDS011;6948;51.216;6.778;2022-09-06T15:24:04;2.50;;;1.30;;
13753;SDS011;6948;51.216;6.778;2022-09-06T15:26:31;2.50;;;1.30;;
13753;SDS011;6948;51.216;6.778;2022-09-06T15:28:58;1.17;;;0.90;;
13753;SDS011;6948;51.216;6.778;2022-09-06T15:31:24;3.83;;;1.38;;
13753;SDS011;6948;51.216;6.778;2022-09-06T15:33:51;1.98;;;1.05;;
13753;SDS011;6948;51.216;6.778;2022-09-06T15:36:17;1.98;;;1.25;;
13753;SDS011;6948;51.216;6.778;2022-09-06T15:38:44;4.28;;;1.20;;
13753;SDS011;6948;51.216;6.778;2022-09-06T15:41:28;5.35;;;1.30;;
13753;SDS011;6948;51.216;6.778;2022-09-06T15:43:57;4.32;;;1.42;;
13753;SDS011;6948;51.216;6.778;2022-09-06T15:46:38;2.35;;;1.08;;
13753;SDS011;6948;51.216;6.778;2022-09-06T15:49:05;4.60;;;1.40;;
13753;SDS011;6948;51.216;6.778;2022-09-06T15:51:32;4.03;;;1.27;;
13753;SDS011;6948;51.216;6.778;2022-09-06T15:53:59;3.45;;;1.33;;
13753;SDS011;6948;51.216;6.778;2022-09-06T15:56:25;4.38;;;1.35;;
13753;SDS011;6948;51.216;6.778;2022-09-06T15:58:51;2.65;;;1.25;;
13753;SDS011;6948;51.216;6.778;2022-09-06T16:01:18;2.63;;;1.27;;
13753;SDS011;6948;51.216;6.778;2022-09-06T16:03:46;1.40;;;1.10;;
13753;SDS011;6948;51.216;6.778;2022-09-06T16:06:14;3.00;;;1.52;;
13753;SDS011;6948;51.216;6.778;2022-09-06T16:08:40;4.28;;;1.20;;
13753;SDS011;6948;51.216;6.778;2022-09-06T16:11:07;1.88;;;1.20;;
13753;SDS011;6948;51.216;6.778;2022-09-06T16:13:35;2.75;;;1.20;;
13753;SDS011;6948;51.216;6.778;2022-09-06T16:16:02;4.05;;;1.50;;
13753;SDS011;6948;51.216;6.778;2022-09-06T16:18:30;3.25;;;1.42;;
13753;SDS011;6948;51.216;6.778;2022-09-06T16:20:56;1.50;;;1.27;;
13753;SDS011;6948;51.216;6.778;2022-09-06T16:23:22;3.03;;;1.35;;
13753;SDS011;6948;51.216;6.778;2022-09-06T16:25:51;4.13;;;1.48;;
13753;SDS011;6948;51.216;6.778;2022-09-06T16:28:17;2.67;;;1.40;;
13753;SDS011;6948;51.216;6.778;2022-09-06T16:30:43;1.95;;;1.33;;
13753;SDS011;6948;51.216;6.778;2022-09-06T16:33:10;3.85;;;1.20;;
13753;SDS011;6948;51.216;6.778;2022-09-06T16:35:37;2.00;;;1.10;;
13753;SDS011;6948;51.216;6.778;2022-09-06T16:38:03;1.90;;;1.70;;
13753;SDS011;6948;51.216;6.778;2022-09-06T16:40:29;4.70;;;2.05;;
13753;SDS011;6948;51.216;6.778;2022-09-06T16:42:56;1.42;;;1.02;;
13753;SDS011;6948;51.216;6.778;2022-09-06T16:45:22;2.75;;;1.30;;